createdAt,value
2024-02-05T00:00:18.168Z,85.28
2024-02-05T00:01:24.741Z,86.17
2024-02-05T00:02:27.126Z,86.57
2024-02-05T00:03:29.301Z,86.03
2024-02-05T00:04:31.224Z,85.66
2024-02-05T00:05:33.405Z,85.56
2024-02-05T00:06:35.704Z,85.27
2024-02-05T00:07:38.226Z,85.23
2024-02-05T00:08:40.455Z,84.77
2024-02-05T00:09:42.936Z,85.17
2024-02-05T00:10:45.027Z,85.41
2024-02-05T00:11:47.109Z,85.19
2024-02-05T00:12:49.308Z,85.32
2024-02-05T00:13:51.572Z,85.11
2024-02-05T00:14:56.122Z,84.75
2024-02-05T00:15:59.031Z,84.70
2024-02-05T00:17:01.614Z,85.19
2024-02-05T00:18:07.178Z,86.24
2024-02-05T00:19:09.246Z,86.01
2024-02-05T00:20:13.525Z,86.13
2024-02-05T00:21:15.523Z,85.38
2024-02-05T00:22:17.536Z,85.58
2024-02-05T00:23:24.285Z,85.44
2024-02-05T00:24:26.229Z,85.53
2024-02-05T00:25:29.949Z,86.03
2024-02-05T00:26:32.001Z,85.97
2024-02-05T00:27:35.478Z,85.69
2024-02-05T00:28:37.716Z,85.52
2024-02-05T00:29:41.112Z,85.35
2024-02-05T00:30:45.355Z,85.18
2024-02-05T00:31:52.414Z,85.61
2024-02-05T00:32:54.480Z,85.08
2024-02-05T00:33:57.928Z,85.00
2024-02-05T00:35:00.303Z,86.02
2024-02-05T00:36:05.057Z,86.02
2024-02-05T00:37:10.479Z,85.81
2024-02-05T00:38:14.732Z,85.93
2024-02-05T00:39:17.124Z,85.84
2024-02-05T00:40:19.803Z,85.39
2024-02-05T00:41:22.434Z,84.97
2024-02-05T00:42:26.353Z,85.74
2024-02-05T00:43:30.227Z,85.69
2024-02-05T00:44:32.818Z,86.52
2024-02-05T00:45:38.070Z,85.78
2024-02-05T00:46:41.668Z,86.34
2024-02-05T00:47:45.464Z,86.29
2024-02-05T00:48:48.300Z,86.75
2024-02-05T00:49:50.475Z,86.50
2024-02-05T00:50:53.893Z,86.56
2024-02-05T00:51:55.917Z,85.78
2024-02-05T00:52:57.997Z,86.06
2024-02-05T00:54:00.247Z,87.82
2024-02-05T00:55:06.122Z,88.76
2024-02-05T00:56:10.541Z,88.40
2024-02-05T00:57:12.618Z,88.82
2024-02-05T00:58:15.420Z,89.67
2024-02-05T00:59:18.323Z,89.75
2024-02-05T01:00:21.839Z,90.29
2024-02-05T01:01:26.589Z,90.20
2024-02-05T01:02:30.862Z,90.51
2024-02-05T01:03:33.218Z,91.74
2024-02-05T01:04:37.222Z,91.70
2024-02-05T01:05:39.989Z,91.84
2024-02-05T01:06:42.578Z,91.28
2024-02-05T01:07:44.768Z,91.53
2024-02-05T01:08:46.780Z,90.65
2024-02-05T01:09:48.838Z,90.38
2024-02-05T01:10:53.113Z,92.03
2024-02-05T01:11:56.474Z,92.05
2024-02-05T01:12:58.470Z,92.54
2024-02-05T01:14:02.199Z,92.69
2024-02-05T01:15:06.036Z,92.69
2024-02-05T01:16:08.422Z,91.59
2024-02-05T01:17:11.620Z,92.49
2024-02-05T01:18:15.499Z,93.05
2024-02-05T01:19:17.762Z,92.39
2024-02-05T01:20:19.853Z,92.45
2024-02-05T01:21:23.883Z,92.31
2024-02-05T01:22:27.880Z,92.91
2024-02-05T01:23:31.066Z,93.01
2024-02-05T01:24:33.050Z,93.05
2024-02-05T01:25:36.449Z,92.48
2024-02-05T01:26:38.590Z,92.84
2024-02-05T01:27:40.542Z,92.41
2024-02-05T01:28:42.634Z,91.83
2024-02-05T01:29:45.522Z,92.17
2024-02-05T01:30:47.816Z,91.81
2024-02-05T01:31:52.077Z,91.48
2024-02-05T01:32:54.563Z,91.33
2024-02-05T01:33:56.696Z,92.17
2024-02-05T01:34:58.822Z,92.32
2024-02-05T01:36:02.322Z,93.18
2024-02-05T01:37:06.284Z,92.10
2024-02-05T01:38:11.372Z,92.01
2024-02-05T01:39:13.460Z,91.32
2024-02-05T01:40:15.731Z,91.79
2024-02-05T01:41:18.415Z,92.29
2024-02-05T01:42:20.445Z,91.75
2024-02-05T01:43:22.903Z,91.64
2024-02-05T01:44:24.882Z,91.56
2024-02-05T01:45:31.063Z,91.83
2024-02-05T01:46:36.189Z,90.87
2024-02-05T01:47:39.839Z,90.48
2024-02-05T01:48:44.916Z,90.27
2024-02-05T01:49:49.461Z,89.25
2024-02-05T01:50:54.602Z,90.25
2024-02-05T01:52:00.389Z,89.49
2024-02-05T01:53:05.446Z,88.79
2024-02-05T01:54:12.420Z,88.57
2024-02-05T01:55:16.977Z,89.07
2024-02-05T01:56:25.969Z,88.61
2024-02-05T01:57:28.210Z,88.44
2024-02-05T01:58:31.743Z,87.96
2024-02-05T01:59:33.857Z,87.03
2024-02-05T02:00:40.113Z,87.29
2024-02-05T02:01:44.197Z,87.56
2024-02-05T02:02:46.797Z,87.63
2024-02-05T02:03:51.537Z,88.46
2024-02-05T02:05:01.383Z,88.24
2024-02-05T02:06:06.714Z,87.77
2024-02-05T02:07:09.802Z,86.72
2024-02-05T02:08:14.647Z,86.39
2024-02-05T02:09:18.720Z,86.10
2024-02-05T02:10:22.535Z,86.60
2024-02-05T02:11:27.164Z,87.08
2024-02-05T02:12:29.140Z,86.41
2024-02-05T02:13:32.730Z,86.19
2024-02-05T02:14:34.740Z,85.75
2024-02-05T02:15:36.677Z,84.63
2024-02-05T02:16:41.136Z,83.82
2024-02-05T02:17:47.496Z,83.68
2024-02-05T02:18:51.753Z,83.56
2024-02-05T02:19:56.396Z,83.88
2024-02-05T02:20:59.575Z,84.41
2024-02-05T02:22:13.482Z,84.48
2024-02-05T02:23:30.097Z,84.48
2024-02-05T02:24:34.818Z,84.21
2024-02-05T02:25:40.326Z,84.55
2024-02-05T02:26:42.491Z,84.49
2024-02-05T02:27:45.827Z,84.74
2024-02-05T02:28:47.817Z,84.00
2024-02-05T02:29:51.763Z,84.32
2024-02-05T02:30:54.935Z,83.83
2024-02-05T02:32:14.175Z,84.03
2024-02-05T02:33:32.564Z,83.71
2024-02-05T02:34:38.405Z,84.00
2024-02-05T02:36:04.527Z,83.54
2024-02-05T02:37:10.934Z,82.84
2024-02-05T02:38:19.738Z,82.54
2024-02-05T02:39:28.630Z,81.94
2024-02-05T02:40:33.466Z,82.26
2024-02-05T02:41:38.876Z,82.95
2024-02-05T02:42:45.410Z,83.84
2024-02-05T02:43:58.390Z,82.66
2024-02-05T02:45:02.365Z,81.92
2024-02-05T02:46:06.445Z,81.57
2024-02-05T02:47:10.041Z,82.51
2024-02-05T02:48:12.087Z,83.07
2024-02-05T02:49:14.238Z,83.34
2024-02-05T02:50:17.453Z,83.13
2024-02-05T02:51:21.644Z,82.75
2024-02-05T02:52:23.769Z,82.82
2024-02-05T02:53:27.109Z,83.94
2024-02-05T02:54:31.271Z,83.48
2024-02-05T02:55:35.093Z,84.05
2024-02-05T02:56:38.492Z,84.63
2024-02-05T02:57:41.449Z,83.80
2024-02-05T02:58:43.503Z,83.86
2024-02-05T02:59:45.390Z,85.17
2024-02-05T03:00:49.533Z,85.19
2024-02-05T03:01:52.031Z,84.53
2024-02-05T03:02:55.291Z,84.84
2024-02-05T03:03:57.273Z,84.95
2024-02-05T03:04:59.361Z,84.75
2024-02-05T03:06:01.574Z,84.56
2024-02-05T03:08:09.936Z,83.94
2024-02-05T03:09:12.516Z,84.44
2024-02-05T03:10:15.697Z,85.50
2024-02-05T03:11:18.472Z,85.78
2024-02-05T03:12:20.516Z,86.11
2024-02-05T03:13:22.437Z,86.16
2024-02-05T03:14:24.525Z,85.97
2024-02-05T03:15:27.657Z,86.44
2024-02-05T03:16:29.790Z,86.82
2024-02-05T03:17:31.705Z,87.32
2024-02-05T03:18:33.737Z,87.35
2024-02-05T03:19:36.014Z,86.85
2024-02-05T03:20:41.158Z,87.17
2024-02-05T03:21:43.717Z,88.87
2024-02-05T03:22:56.097Z,88.67
2024-02-05T03:23:49.633Z,87.76
2024-02-05T03:24:51.798Z,87.57
2024-02-05T03:25:53.853Z,87.51
2024-02-05T03:26:57.042Z,86.30
2024-02-05T03:28:02.105Z,86.30
2024-02-05T03:29:04.131Z,86.97
2024-02-05T03:30:10.098Z,86.75
2024-02-05T03:31:12.423Z,86.27
2024-02-05T03:32:14.489Z,86.71
2024-02-05T03:33:18.595Z,86.26
2024-02-05T03:34:22.961Z,86.31
2024-02-05T03:35:27.258Z,86.15
2024-02-05T03:36:29.391Z,87.33
2024-02-05T03:37:31.287Z,87.14
2024-02-05T03:38:33.634Z,88.76
2024-02-05T03:39:37.165Z,88.07
2024-02-05T03:40:39.311Z,87.97
2024-02-05T03:41:41.350Z,87.68
2024-02-05T03:42:43.495Z,87.98
2024-02-05T03:43:49.167Z,87.90
2024-02-05T03:44:51.095Z,87.73
2024-02-05T03:45:53.175Z,87.45
2024-02-05T03:46:55.390Z,87.35
2024-02-05T03:47:57.322Z,87.43
2024-02-05T03:48:59.900Z,88.72
2024-02-05T03:50:03.259Z,88.86
2024-02-05T03:51:05.469Z,89.43
2024-02-05T03:52:07.432Z,89.27
2024-02-05T03:53:10.257Z,89.15
2024-02-05T03:54:13.120Z,88.93
2024-02-05T03:55:17.119Z,89.09
2024-02-05T03:56:19.668Z,89.26
2024-02-05T03:57:22.393Z,89.66
2024-02-05T03:58:24.523Z,89.52
2024-02-05T03:59:27.429Z,89.19
2024-02-05T04:00:31.174Z,89.00
2024-02-05T04:01:35.839Z,89.10
2024-02-05T04:02:41.192Z,89.58
2024-02-05T04:03:43.360Z,89.38
2024-02-05T04:04:45.455Z,88.92
2024-02-05T04:05:47.527Z,89.09
2024-02-05T04:06:49.729Z,89.17
2024-02-05T04:07:51.818Z,89.03
2024-02-05T04:08:54.883Z,89.97
2024-02-05T04:09:57.124Z,91.09
2024-02-05T04:11:00.691Z,91.58
2024-02-05T04:12:05.964Z,91.61
2024-02-05T04:13:08.105Z,92.01
2024-02-05T04:14:10.130Z,91.94
2024-02-05T04:15:13.013Z,93.27
2024-02-05T04:16:15.337Z,93.42
2024-02-05T04:17:17.792Z,92.83
2024-02-05T04:18:21.222Z,92.74
2024-02-05T04:19:23.341Z,92.15
2024-02-05T04:20:25.471Z,91.87
2024-02-05T04:21:28.932Z,91.33
2024-02-05T04:22:31.618Z,91.32
2024-02-05T04:23:33.528Z,91.18
2024-02-05T04:24:35.425Z,90.89
2024-02-05T04:25:38.143Z,90.73
2024-02-05T04:26:40.329Z,90.96
2024-02-05T04:27:42.257Z,91.71
2024-02-05T04:28:44.224Z,91.00
2024-02-05T04:29:49.068Z,91.26
2024-02-05T04:30:51.667Z,90.96
2024-02-05T04:31:54.699Z,90.94
2024-02-05T04:32:57.123Z,91.34
2024-02-05T04:34:02.399Z,92.72
2024-02-05T04:35:05.793Z,93.30
2024-02-05T04:36:11.516Z,92.76
2024-02-05T04:37:13.529Z,93.15
2024-02-05T04:38:15.687Z,93.31
2024-02-05T04:39:17.599Z,92.44
2024-02-05T04:40:21.709Z,91.65
2024-02-05T04:41:24.092Z,91.24
2024-02-05T04:42:27.282Z,91.25
2024-02-05T04:43:29.960Z,91.91
2024-02-05T04:44:31.869Z,91.61
2024-02-05T04:45:34.914Z,91.15
2024-02-05T04:46:36.954Z,91.06
2024-02-05T04:47:39.052Z,90.49
2024-02-05T04:48:41.624Z,90.55
2024-02-05T04:49:44.700Z,91.22
2024-02-05T04:50:47.020Z,91.06
2024-02-05T04:51:49.540Z,90.53
2024-02-05T04:52:52.708Z,90.16
2024-02-05T04:53:58.457Z,89.74
2024-02-05T04:55:00.671Z,89.84
2024-02-05T04:56:03.402Z,90.30
2024-02-05T04:57:06.853Z,89.66
2024-02-05T04:58:09.818Z,89.69
2024-02-05T04:59:13.140Z,89.58
2024-02-05T05:00:18.174Z,88.76
2024-02-05T05:01:20.416Z,88.35
2024-02-05T05:02:22.447Z,88.05
2024-02-05T05:03:24.499Z,88.03
2024-02-05T05:04:27.411Z,88.67
2024-02-05T05:05:31.374Z,89.74
2024-02-05T05:06:33.798Z,89.17
2024-02-05T05:07:37.946Z,89.14
2024-02-05T05:08:40.135Z,88.87
2024-02-05T05:09:42.067Z,89.64
2024-02-05T05:10:44.503Z,88.89
2024-02-05T05:11:46.771Z,88.46
2024-02-05T05:12:52.403Z,88.23
2024-02-05T05:13:54.430Z,87.69
2024-02-05T05:14:56.455Z,88.02
2024-02-05T05:16:02.376Z,88.39
2024-02-05T05:17:04.689Z,88.52
2024-02-05T05:18:07.104Z,88.52
2024-02-05T05:19:09.331Z,87.13
2024-02-05T05:20:13.063Z,87.52
2024-02-05T05:21:15.215Z,87.52
2024-02-05T05:22:17.235Z,87.34
2024-02-05T05:23:19.310Z,87.50
2024-02-05T05:24:21.242Z,87.56
2024-02-05T05:25:25.428Z,88.21
2024-02-05T05:26:27.839Z,88.21
2024-02-05T05:27:29.830Z,88.65
2024-02-05T05:28:31.880Z,88.19
2024-02-05T05:29:33.957Z,87.53
2024-02-05T05:30:38.256Z,87.11
2024-02-05T05:31:40.353Z,87.45
2024-02-05T05:32:42.481Z,87.71
2024-02-05T05:33:45.832Z,87.79
2024-02-05T05:34:48.031Z,88.39
2024-02-05T05:35:50.712Z,88.52
2024-02-05T05:36:53.165Z,89.05
2024-02-05T05:37:55.378Z,88.79
2024-02-05T05:38:57.470Z,88.88
2024-02-05T05:39:59.568Z,89.71
2024-02-05T05:41:02.587Z,89.55
2024-02-05T05:42:04.897Z,90.06
2024-02-05T05:43:08.188Z,90.08
2024-02-05T05:44:10.291Z,90.49
2024-02-05T05:45:12.212Z,90.10
2024-02-05T05:46:15.268Z,91.26
2024-02-05T05:47:17.584Z,91.15
2024-02-05T05:48:21.593Z,90.36
2024-02-05T05:49:23.784Z,90.71
2024-02-05T05:50:26.147Z,90.83
2024-02-05T05:51:28.268Z,91.09
2024-02-05T05:52:30.752Z,90.88
2024-02-05T05:53:32.823Z,90.77
2024-02-05T05:54:35.676Z,90.78
2024-02-05T05:55:40.308Z,91.82
2024-02-05T05:56:43.451Z,91.89
2024-02-05T05:57:45.796Z,92.20
2024-02-05T05:58:48.453Z,92.42
2024-02-05T05:59:50.367Z,91.79
2024-02-05T06:00:52.814Z,91.70
2024-02-05T06:01:55.876Z,90.80
2024-02-05T06:02:58.443Z,90.75
2024-02-05T06:04:00.405Z,89.85
2024-02-05T06:05:02.518Z,90.45
2024-02-05T06:06:05.288Z,91.57
2024-02-05T06:07:08.877Z,91.16
2024-02-05T06:08:11.154Z,91.54
2024-02-05T06:09:13.564Z,91.08
2024-02-05T06:10:15.981Z,91.08
2024-02-05T06:11:18.086Z,91.15
2024-02-05T06:12:20.653Z,90.55
2024-02-05T06:13:22.679Z,90.45
2024-02-05T06:14:24.841Z,91.03
2024-02-05T06:15:27.496Z,91.06
2024-02-05T06:16:29.811Z,89.98
2024-02-05T06:17:32.101Z,89.74
2024-02-05T06:18:34.134Z,89.43
2024-02-05T06:19:36.452Z,89.85
2024-02-05T06:20:39.816Z,90.29
2024-02-05T06:21:42.011Z,90.07
2024-02-05T06:22:44.806Z,90.21
2024-02-05T06:23:46.895Z,90.07
2024-02-05T06:24:49.859Z,90.51
2024-02-05T06:25:52.602Z,89.75
2024-02-05T06:26:54.599Z,89.47
2024-02-05T06:27:57.586Z,89.15
2024-02-05T06:28:59.609Z,88.47
2024-02-05T06:30:03.026Z,89.54
2024-02-05T06:31:05.547Z,89.01
2024-02-05T06:32:07.503Z,88.92
2024-02-05T06:33:09.517Z,89.38
2024-02-05T06:34:11.766Z,88.79
2024-02-05T06:35:14.141Z,89.08
2024-02-05T06:36:16.326Z,88.72
2024-02-05T06:37:19.433Z,87.76
2024-02-05T06:38:21.518Z,88.39
2024-02-05T06:39:23.564Z,88.41
2024-02-05T06:40:26.068Z,88.07
2024-02-05T06:41:28.372Z,88.25
2024-02-05T06:42:30.292Z,88.54
2024-02-05T06:43:38.276Z,88.18
2024-02-05T06:44:41.568Z,87.74
2024-02-05T06:45:44.032Z,87.52
2024-02-05T06:46:48.323Z,88.06
2024-02-05T06:47:52.185Z,87.99
2024-02-05T06:48:54.533Z,87.87
2024-02-05T06:49:57.017Z,88.21
2024-02-05T06:50:59.344Z,87.80
2024-02-05T06:52:02.416Z,87.20
2024-02-05T06:53:05.608Z,87.22
2024-02-05T06:54:07.726Z,87.79
2024-02-05T06:55:10.808Z,87.68
2024-02-05T06:56:13.157Z,87.83
2024-02-05T06:57:15.186Z,87.80
2024-02-05T06:58:17.123Z,88.10
2024-02-05T06:59:19.078Z,88.96
2024-02-05T07:00:21.999Z,88.34
2024-02-05T07:01:24.065Z,88.42
2024-02-05T07:02:26.046Z,88.16
2024-02-05T07:03:29.134Z,88.04
2024-02-05T07:04:31.341Z,87.74
2024-02-05T07:05:34.684Z,87.29
2024-02-05T07:06:39.476Z,87.25
2024-02-05T07:07:41.678Z,87.52
2024-02-05T07:08:44.491Z,87.71
2024-02-05T07:09:46.752Z,88.85
2024-02-05T07:10:48.982Z,89.50
2024-02-05T07:11:50.857Z,89.02
2024-02-05T07:12:52.786Z,88.79
2024-02-05T07:13:54.876Z,88.46
2024-02-05T07:14:59.810Z,89.64
2024-02-05T07:16:01.899Z,90.36
2024-02-05T07:17:04.881Z,89.86
2024-02-05T07:18:07.351Z,90.11
2024-02-05T07:19:12.777Z,90.10
2024-02-05T07:20:17.907Z,89.62
2024-02-05T07:21:19.897Z,89.59
2024-02-05T07:22:21.821Z,89.11
2024-02-05T07:23:23.989Z,88.76
2024-02-05T07:24:26.789Z,89.26
2024-02-05T07:25:29.296Z,89.65
2024-02-05T07:26:34.153Z,90.40
2024-02-05T07:27:36.107Z,89.97
2024-02-05T07:28:38.191Z,90.15
2024-02-05T07:29:40.247Z,89.74
2024-02-05T07:30:42.260Z,90.74
2024-02-05T07:31:44.480Z,90.82
2024-02-05T07:32:48.508Z,90.12
2024-02-05T07:33:50.906Z,90.23
2024-02-05T07:34:53.158Z,90.46
2024-02-05T07:35:55.264Z,90.62
2024-02-05T07:36:57.386Z,90.97
2024-02-05T07:37:59.882Z,90.35
2024-02-05T07:39:02.418Z,89.75
2024-02-05T07:40:07.570Z,89.81
2024-02-05T07:41:11.424Z,89.84
2024-02-05T07:42:14.425Z,90.63
2024-02-05T07:43:16.746Z,91.33
2024-02-05T07:44:20.450Z,91.84
2024-02-05T07:45:24.424Z,91.96
2024-02-05T07:46:26.560Z,91.79
2024-02-05T07:47:29.127Z,91.24
2024-02-05T07:48:31.431Z,92.03
2024-02-05T07:49:34.265Z,92.18
2024-02-05T07:50:36.612Z,91.83
2024-02-05T07:51:44.299Z,91.42
2024-02-05T07:52:47.999Z,91.47
2024-02-05T07:53:49.968Z,91.65
2024-02-05T07:54:52.251Z,91.60
2024-02-05T07:55:57.208Z,91.74
2024-02-05T07:56:59.502Z,92.69
2024-02-05T07:58:01.519Z,93.77
2024-02-05T08:00:16.256Z,94.75
2024-02-05T08:01:19.434Z,94.38
2024-02-05T08:02:21.448Z,95.77
2024-02-05T08:03:23.784Z,95.10
2024-02-05T08:04:26.162Z,94.39
2024-02-05T08:05:30.219Z,95.28
2024-02-05T08:06:33.337Z,95.50
2024-02-05T08:07:35.601Z,95.55
2024-02-05T08:08:37.747Z,96.06
2024-02-05T08:09:39.908Z,95.92
2024-02-05T08:10:43.031Z,95.90
2024-02-05T08:11:47.606Z,95.55
2024-02-05T08:12:50.402Z,95.45
2024-02-05T08:13:55.684Z,95.53
2024-02-05T08:14:58.687Z,95.81
2024-02-05T08:16:02.092Z,96.85
2024-02-05T08:17:08.352Z,96.62
2024-02-05T08:18:08.966Z,96.67
2024-02-05T08:19:11.484Z,97.48
2024-02-05T08:20:15.688Z,98.32
2024-02-05T08:21:20.198Z,98.11
2024-02-05T08:22:25.587Z,98.28
2024-02-05T08:23:27.680Z,98.43
2024-02-05T08:24:29.716Z,99.17
2024-02-05T08:25:32.439Z,99.10
2024-02-05T08:26:37.569Z,99.65
2024-02-05T08:27:39.741Z,99.76
2024-02-05T08:28:41.804Z,98.99
2024-02-05T08:29:44.885Z,98.91
2024-02-05T08:30:47.808Z,97.92
2024-02-05T08:31:50.083Z,97.38
2024-02-05T08:32:56.517Z,96.85
2024-02-05T08:34:02.625Z,97.07
2024-02-05T08:35:09.371Z,97.52
2024-02-05T08:36:11.576Z,97.55
2024-02-05T08:37:13.689Z,97.29
2024-02-05T08:38:15.972Z,96.93
2024-02-05T08:39:18.008Z,97.76
2024-02-05T08:40:23.253Z,97.95
2024-02-05T08:41:25.318Z,97.47
2024-02-05T08:42:32.649Z,97.42
2024-02-05T08:43:31.267Z,97.67
2024-02-05T08:44:33.663Z,97.32
2024-02-05T08:45:35.680Z,97.67
2024-02-05T08:46:39.153Z,98.06
2024-02-05T08:47:42.321Z,98.30
2024-02-05T08:48:44.891Z,97.92
2024-02-05T08:49:49.392Z,98.77
2024-02-05T08:50:52.724Z,97.99
2024-02-05T08:51:54.792Z,98.04
2024-02-05T08:52:58.756Z,99.15
2024-02-05T08:54:02.050Z,98.99
2024-02-05T08:55:05.929Z,98.49
2024-02-05T08:56:08.327Z,97.40
2024-02-05T08:57:11.544Z,97.21
2024-02-05T08:58:14.966Z,96.46
2024-02-05T08:59:19.472Z,96.99
2024-02-05T09:00:23.724Z,97.99
2024-02-05T09:01:27.690Z,98.22
2024-02-05T09:02:30.498Z,98.50
2024-02-05T09:03:33.016Z,97.87
2024-02-05T09:04:35.905Z,97.76
2024-02-05T09:05:44.034Z,97.13
2024-02-05T09:06:42.964Z,95.96
2024-02-05T09:07:45.450Z,96.18
2024-02-05T09:08:47.745Z,97.52
2024-02-05T09:09:49.667Z,98.00
2024-02-05T09:10:53.173Z,98.61
2024-02-05T09:12:05.102Z,98.58
2024-02-05T09:13:00.876Z,97.80
2024-02-05T09:14:02.845Z,97.04
2024-02-05T09:15:08.167Z,96.60
2024-02-05T09:16:10.896Z,96.43
2024-02-05T09:17:15.080Z,96.25
2024-02-05T09:18:17.078Z,96.08
2024-02-05T09:19:19.788Z,95.49
2024-02-05T09:20:24.235Z,95.24
2024-02-05T09:21:26.153Z,95.92
2024-02-05T09:22:28.525Z,96.10
2024-02-05T09:23:30.935Z,96.31
2024-02-05T09:24:32.906Z,96.41
2024-02-05T09:25:35.802Z,96.21
2024-02-05T09:26:40.024Z,95.70
2024-02-05T09:27:43.180Z,96.34
2024-02-05T09:28:45.237Z,96.55
2024-02-05T09:29:49.765Z,96.05
2024-02-05T09:31:01.999Z,95.17
2024-02-05T09:31:58.123Z,95.38
2024-02-05T09:33:00.235Z,95.38
2024-02-05T09:34:02.399Z,94.66
2024-02-05T09:35:05.885Z,95.90
2024-02-05T09:36:10.577Z,96.53
2024-02-05T09:37:12.709Z,96.46
2024-02-05T09:38:14.763Z,95.84
2024-02-05T09:39:18.892Z,96.10
2024-02-05T09:40:21.300Z,95.75
2024-02-05T09:41:27.061Z,95.82
2024-02-05T09:42:30.337Z,96.92
2024-02-05T09:43:33.363Z,96.92
2024-02-05T09:44:38.066Z,96.84
2024-02-05T09:45:45.217Z,95.74
2024-02-05T09:46:50.604Z,96.14
2024-02-05T09:47:55.891Z,96.84
2024-02-05T09:49:01.146Z,97.28
2024-02-05T09:50:06.673Z,96.05
2024-02-05T09:51:12.263Z,94.88
2024-02-05T09:52:15.850Z,95.83
2024-02-05T09:53:17.899Z,96.23
2024-02-05T09:54:24.260Z,96.25
2024-02-05T09:55:29.287Z,95.75
2024-02-05T09:56:36.044Z,96.10
2024-02-05T09:57:41.274Z,95.18
2024-02-05T09:58:43.636Z,95.52
2024-02-05T09:59:46.442Z,95.09
2024-02-05T10:00:49.657Z,95.04
2024-02-05T10:01:54.991Z,94.65
2024-02-05T10:02:59.455Z,95.31
2024-02-05T10:04:02.686Z,95.19
2024-02-05T10:05:10.070Z,94.76
2024-02-05T10:06:16.284Z,93.91
2024-02-05T10:07:20.438Z,93.72
2024-02-05T10:08:26.420Z,93.88
2024-02-05T10:09:31.262Z,93.46
2024-02-05T10:10:36.140Z,94.72
2024-02-05T10:11:45.132Z,94.25
2024-02-05T10:12:51.948Z,93.29
2024-02-05T10:13:56.953Z,93.57
2024-02-05T10:15:02.657Z,93.84
2024-02-05T10:16:10.012Z,94.91
2024-02-05T10:17:15.769Z,93.92
2024-02-05T10:18:19.005Z,94.67
2024-02-05T10:19:24.159Z,94.53
2024-02-05T10:20:33.957Z,94.53
2024-02-05T10:21:38.355Z,94.34
2024-02-05T10:22:49.751Z,94.39
2024-02-05T10:23:55.280Z,95.30
2024-02-05T10:24:59.601Z,94.51
2024-02-05T10:26:03.560Z,94.90
2024-02-05T10:27:05.717Z,94.64
2024-02-05T10:28:09.117Z,94.64
2024-02-05T10:29:11.687Z,94.63
2024-02-05T10:30:19.506Z,94.78
2024-02-05T10:31:22.014Z,94.83
2024-02-05T10:32:24.203Z,94.83
2024-02-05T10:33:26.755Z,94.97
2024-02-05T10:34:31.203Z,94.21
2024-02-05T10:35:36.989Z,93.56
2024-02-05T10:36:41.300Z,92.47
2024-02-05T10:37:44.670Z,92.95
2024-02-05T10:38:46.754Z,94.47
2024-02-05T10:39:50.303Z,93.94
2024-02-05T10:40:52.566Z,93.26
2024-02-05T10:41:54.914Z,92.26
2024-02-05T10:42:58.813Z,92.52
2024-02-05T10:44:02.114Z,93.82
2024-02-05T10:45:06.111Z,93.36
2024-02-05T10:46:08.535Z,93.14
2024-02-05T10:47:12.048Z,93.40
2024-02-05T10:48:15.248Z,92.81
2024-02-05T10:49:19.502Z,93.14
2024-02-05T10:50:23.867Z,92.52
2024-02-05T10:51:26.923Z,92.75
2024-02-05T10:52:31.572Z,92.12
2024-02-05T10:53:38.024Z,91.60
2024-02-05T10:54:42.833Z,90.88
2024-02-05T10:55:45.664Z,92.10
2024-02-05T10:56:50.833Z,92.15
2024-02-05T10:57:56.084Z,91.29
2024-02-05T10:59:01.009Z,90.49
2024-02-05T11:00:03.945Z,90.56
2024-02-05T11:01:08.360Z,90.66
2024-02-05T11:02:32.593Z,90.85
2024-02-05T11:03:36.873Z,91.78
2024-02-05T11:04:42.407Z,92.10
2024-02-05T11:05:48.302Z,92.17
2024-02-05T11:06:54.647Z,92.38
2024-02-05T11:08:00.485Z,92.17
2024-02-05T11:09:07.365Z,92.17
2024-02-05T11:10:12.033Z,92.86
2024-02-05T11:11:15.815Z,93.00
2024-02-05T11:12:23.320Z,92.69
2024-02-05T11:14:42.634Z,92.31
2024-02-05T11:15:47.662Z,92.46
2024-02-05T11:16:50.534Z,91.74
2024-02-05T11:17:54.626Z,91.26
2024-02-05T11:19:01.317Z,91.79
2024-02-05T11:20:10.957Z,91.70
2024-02-05T11:21:17.893Z,91.58
2024-02-05T11:22:23.553Z,92.10
2024-02-05T11:23:30.529Z,92.37
2024-02-05T11:24:34.733Z,92.54
2024-02-05T11:25:37.264Z,91.89
2024-02-05T11:26:40.860Z,92.06
2024-02-05T11:27:45.414Z,91.36
2024-02-05T11:28:52.521Z,91.77
2024-02-05T11:29:55.454Z,91.73
2024-02-05T11:31:02.641Z,91.73
2024-02-05T11:32:05.547Z,91.51
2024-02-05T11:33:07.782Z,92.90
2024-02-05T11:34:09.923Z,92.27
2024-02-05T11:35:12.947Z,92.96
2024-02-05T11:36:15.382Z,93.30
2024-02-05T11:37:17.676Z,92.23
2024-02-05T11:38:21.381Z,91.79
2024-02-05T11:39:27.774Z,91.13
2024-02-05T11:40:34.464Z,90.71
2024-02-05T11:41:39.189Z,90.55
2024-02-05T11:42:41.131Z,89.86
2024-02-05T11:43:43.029Z,89.24
2024-02-05T11:44:48.682Z,89.49
2024-02-05T11:45:54.894Z,88.70
2024-02-05T11:46:57.813Z,88.21
2024-02-05T11:48:08.297Z,88.21
2024-02-05T11:49:13.275Z,88.01
2024-02-05T11:50:18.513Z,87.58
2024-02-05T11:51:34.503Z,87.77
2024-02-05T11:52:36.992Z,87.79
2024-02-05T11:53:43.101Z,87.54
2024-02-05T11:54:45.323Z,86.99
2024-02-05T11:55:48.388Z,87.12
2024-02-05T11:56:50.650Z,87.25
2024-02-05T11:57:52.744Z,88.35
2024-02-05T11:59:00.551Z,88.15
2024-02-05T12:00:07.282Z,87.36
2024-02-05T12:01:12.031Z,86.98
2024-02-05T12:02:15.583Z,86.89
2024-02-05T12:03:20.811Z,86.68
2024-02-05T12:04:26.076Z,86.96
2024-02-05T12:05:29.377Z,86.63
2024-02-05T12:06:32.213Z,86.71
2024-02-05T12:07:36.997Z,86.63
2024-02-05T12:08:41.144Z,86.43
2024-02-05T12:09:43.150Z,87.52
2024-02-05T12:10:45.167Z,87.71
2024-02-05T12:11:47.879Z,87.37
2024-02-05T12:12:52.675Z,87.58
2024-02-05T12:14:01.852Z,87.57
2024-02-05T12:15:27.781Z,87.06
2024-02-05T12:16:29.831Z,86.57
2024-02-05T12:17:32.981Z,86.88
2024-02-05T12:18:40.511Z,86.17
2024-02-05T12:19:42.744Z,85.52
2024-02-05T12:20:45.782Z,85.40
2024-02-05T12:21:48.602Z,85.12
2024-02-05T12:22:53.644Z,84.75
2024-02-05T12:23:55.645Z,84.96
2024-02-05T12:24:58.237Z,85.10
2024-02-05T12:26:01.937Z,84.48
2024-02-05T12:27:07.576Z,84.78
2024-02-05T12:28:13.088Z,84.38
2024-02-05T12:29:25.527Z,84.63
2024-02-05T12:30:27.888Z,85.13
2024-02-05T12:31:30.068Z,84.08
2024-02-05T12:32:42.361Z,84.62
2024-02-05T12:33:38.165Z,85.27
2024-02-05T12:34:41.652Z,84.53
2024-02-05T12:35:43.790Z,84.92
2024-02-05T12:36:50.554Z,85.19
2024-02-05T12:37:53.948Z,87.36
2024-02-05T12:38:57.800Z,87.31
2024-02-05T12:39:59.968Z,87.11
2024-02-05T12:41:04.305Z,87.37
2024-02-05T12:42:07.601Z,88.42
2024-02-05T12:43:09.714Z,89.81
2024-02-05T12:44:19.669Z,88.98
2024-02-05T12:45:17.126Z,89.04
2024-02-05T12:46:20.735Z,88.46
2024-02-05T12:47:25.637Z,88.25
2024-02-05T12:48:28.779Z,89.28
2024-02-05T12:49:31.637Z,89.41
2024-02-05T12:50:34.394Z,88.71
2024-02-05T12:51:37.226Z,88.88
2024-02-05T12:52:39.938Z,88.36
2024-02-05T12:53:42.091Z,88.26
2024-02-05T12:54:46.313Z,88.31
2024-02-05T12:55:50.691Z,88.74
2024-02-05T12:56:53.922Z,88.16
2024-02-05T12:57:55.880Z,87.54
2024-02-05T12:58:59.779Z,87.75
2024-02-05T13:00:03.536Z,87.26
2024-02-05T13:01:06.766Z,86.66
2024-02-05T13:02:11.510Z,86.58
2024-02-05T13:03:13.986Z,87.09
2024-02-05T13:04:18.086Z,86.83
2024-02-05T13:05:22.226Z,86.17
2024-02-05T13:06:27.733Z,85.71
2024-02-05T13:07:32.398Z,85.26
2024-02-05T13:08:34.982Z,85.27
2024-02-05T13:09:38.187Z,84.27
2024-02-05T13:10:46.335Z,84.32
2024-02-05T13:11:49.517Z,83.67
2024-02-05T13:12:53.308Z,83.67
2024-02-05T13:13:58.914Z,83.31
2024-02-05T13:15:00.928Z,82.99
2024-02-05T13:16:07.220Z,83.15
2024-02-05T13:17:12.199Z,82.91
2024-02-05T13:18:14.360Z,82.56
2024-02-05T13:19:18.728Z,82.12
2024-02-05T13:20:24.466Z,81.57
2024-02-05T13:21:27.209Z,82.05
2024-02-05T13:22:29.780Z,81.70
2024-02-05T13:23:32.037Z,81.31
2024-02-05T13:24:37.610Z,81.65
2024-02-05T13:25:45.921Z,81.28
2024-02-05T13:26:46.222Z,80.35
2024-02-05T13:27:50.506Z,79.75
2024-02-05T13:28:52.696Z,79.32
2024-02-05T13:29:57.912Z,79.43
2024-02-05T13:31:00.613Z,78.86
2024-02-05T13:32:06.644Z,78.79
2024-02-05T13:33:08.752Z,78.91
2024-02-05T13:34:14.164Z,78.87
2024-02-05T13:35:16.531Z,79.34
2024-02-05T13:36:20.043Z,78.91
2024-02-05T13:37:23.407Z,77.99
2024-02-05T13:38:25.480Z,77.57
2024-02-05T13:39:27.517Z,77.24
2024-02-05T13:40:29.805Z,77.08
2024-02-05T13:41:34.539Z,76.98
2024-02-05T13:42:37.268Z,76.75